Time;durP1;ratioP1;P1;durP2;ratioP2;P2;SDS_P1;SDS_P2;PMS_P1;PMS_P2;Temp;Humidity;BMP_temperature;BMP_pressure;BME280_temperature;BME280_humidity;BME280_pressure;Samples;Min_cycle;Max_cycle;Signal;HPM_P1;HPM_P2
2022/01/17 00:00:15;;;;;;;0.00;0.00;;;6.00;99.90;;;;;;4972943;28;20629;-69
2022/01/17 00:02:42;;;;;;;0.10;0.10;;;6.00;99.90;;;;;;4976663;28;20625;-69
2022/01/17 00:05:10;;;;;;;0.10;0.10;;;6.00;99.90;;;;;;4973224;28;21393;-69
2022/01/17 00:07:39;;;;;;;0.10;0.10;;;6.00;99.90;;;;;;4971338;28;20720;-69
2022/01/17 00:10:07;;;;;;;0.10;0.10;;;6.10;99.90;;;;;;4968984;28;20640;-69
2022/01/17 00:12:37;;;;;;;0.00;0.00;;;6.10;99.90;;;;;;4970290;28;20629;-69
2022/01/17 00:15:11;;;;;;;0.10;0.10;;;6.10;99.90;;;;;;4971338;28;20647;-69
2022/01/17 00:17:41;;;;;;;0.10;0.10;;;6.10;99.90;;;;;;4984655;28;20617;-69
2022/01/17 00:20:11;;;;;;;0.10;0.10;;;6.10;99.90;;;;;;4972383;28;20629;-69
2022/01/17 00:22:39;;;;;;;0.10;0.10;;;6.10;99.90;;;;;;4970955;28;20613;-69
2022/01/17 00:25:08;;;;;;;0.10;0.10;;;6.10;99.90;;;;;;4972136;28;20655;-68
2022/01/17 00:27:35;;;;;;;0.10;0.10;;;6.10;99.90;;;;;;4971219;28;20724;-69
2022/01/17 00:30:04;;;;;;;0.10;0.10;;;6.00;99.90;;;;;;4975577;28;20632;-69
2022/01/17 00:32:31;;;;;;;0.10;0.10;;;6.00;99.90;;;;;;4972985;28;20659;-69
2022/01/17 00:34:59;;;;;;;0.10;0.10;;;6.00;99.90;;;;;;4972235;28;20667;-69
2022/01/17 00:37:26;;;;;;;0.00;0.00;;;6.00;99.90;;;;;;4975783;28;20764;-69
2022/01/17 00:39:54;;;;;;;0.10;0.10;;;6.00;99.90;;;;;;4972377;28;20633;-69
2022/01/17 00:42:21;;;;;;;0.10;0.10;;;6.00;99.90;;;;;;4983775;28;20683;-69
2022/01/17 00:44:49;;;;;;;0.10;0.10;;;6.00;99.90;;;;;;4971465;28;20752;-69
2022/01/17 00:47:15;;;;;;;0.10;0.10;;;6.00;99.90;;;;;;4976544;28;20625;-69
2022/01/17 00:49:43;;;;;;;0.10;0.10;;;6.10;99.90;;;;;;4975125;28;20604;-69
2022/01/17 00:52:10;;;;;;;0.10;0.10;;;6.00;99.90;;;;;;4976690;28;20624;-69
2022/01/17 00:54:37;;;;;;;0.10;0.10;;;6.10;99.90;;;;;;4972761;28;20652;-69
2022/01/17 00:57:06;;;;;;;0.10;0.10;;;6.10;99.90;;;;;;4973244;28;20656;-69
2022/01/17 00:59:33;;;;;;;0.10;0.10;;;6.20;99.90;;;;;;4973044;28;20628;-69
2022/01/17 01:02:00;;;;;;;0.10;0.10;;;6.20;99.90;;;;;;4975293;28;20632;-69
2022/01/17 01:04:27;;;;;;;0.10;0.10;;;6.20;99.90;;;;;;4963686;28;20657;-69
2022/01/17 01:06:54;;;;;;;0.10;0.10;;;6.20;99.90;;;;;;4964402;28;20700;-67
2022/01/17 01:09:22;;;;;;;0.10;0.10;;;6.20;99.90;;;;;;4970570;28;21206;-69
2022/01/17 01:11:49;;;;;;;0.10;0.10;;;6.20;99.90;;;;;;4970245;28;20663;-68
2022/01/17 01:14:17;;;;;;;0.10;0.10;;;6.30;99.90;;;;;;4968049;28;20672;-69
2022/01/17 01:16:44;;;;;;;0.10;0.10;;;6.20;99.90;;;;;;4966464;28;20657;-69
2022/01/17 01:27:42;;;;;;;0.10;0.10;;;6.30;99.90;;;;;;4969414;28;20612;-69
2022/01/17 01:30:14;;;;;;;0.10;0.10;;;6.30;99.90;;;;;;4967039;28;20633;-67
2022/01/17 01:32:46;;;;;;;0.10;0.10;;;6.30;99.90;;;;;;4984660;28;20620;-68
2022/01/17 01:35:15;;;;;;;0.10;0.10;;;6.30;99.90;;;;;;4969818;28;20653;-69
2022/01/17 01:37:45;;;;;;;0.10;0.10;;;6.30;99.90;;;;;;4968488;28;20656;-69
2022/01/17 01:40:12;;;;;;;0.10;0.10;;;6.30;99.90;;;;;;4968626;28;20637;-69
2022/01/17 01:42:40;;;;;;;0.10;0.10;;;6.30;99.90;;;;;;4967197;28;20621;-69
2022/01/17 01:45:09;;;;;;;0.10;0.10;;;6.30;99.90;;;;;;4968678;28;20726;-67
2022/01/17 01:47:37;;;;;;;0.10;0.10;;;6.30;99.90;;;;;;4975464;28;20617;-68
2022/01/17 01:50:06;;;;;;;0.07;0.07;;;6.40;99.90;;;;;;4967308;28;20721;-68
2022/01/17 01:52:33;;;;;;;0.10;0.10;;;6.40;99.90;;;;;;4974899;28;20620;-68
2022/01/17 01:55:00;;;;;;;0.10;0.10;;;6.40;99.90;;;;;;4970859;28;20679;-67
2022/01/17 01:57:27;;;;;;;0.10;0.10;;;6.40;99.90;;;;;;4973564;28;20697;-68
2022/01/17 01:59:58;;;;;;;0.10;0.10;;;6.40;99.90;;;;;;4973697;28;20605;-69
2022/01/17 02:02:25;;;;;;;0.10;0.10;;;6.40;99.90;;;;;;4970461;28;20630;-69
2022/01/17 02:04:53;;;;;;;0.10;0.10;;;6.40;99.90;;;;;;4972151;28;20719;-69
2022/01/17 02:07:22;;;;;;;0.10;0.10;;;6.40;99.90;;;;;;4979109;28;20636;-68
2022/01/17 02:09:49;;;;;;;0.10;0.10;;;6.40;99.90;;;;;;4988156;28;20635;-69
2022/01/17 02:12:20;;;;;;;0.10;0.10;;;6.40;99.90;;;;;;4971138;28;20626;-68
2022/01/17 02:14:48;;;;;;;0.10;0.10;;;6.40;99.90;;;;;;4968353;28;21089;-68
2022/01/17 02:17:16;;;;;;;0.10;0.10;;;6.50;99.90;;;;;;4973428;28;20744;-69
2022/01/17 02:19:46;;;;;;;0.10;0.10;;;6.50;99.90;;;;;;4967613;28;20628;-69
2022/01/17 02:22:15;;;;;;;0.10;0.10;;;6.50;99.90;;;;;;4979264;28;21189;-69
2022/01/17 02:24:42;;;;;;;0.10;0.10;;;6.40;99.90;;;;;;4971686;28;20794;-69
2022/01/17 02:27:09;;;;;;;0.00;0.00;;;6.50;99.90;;;;;;4972258;28;20634;-69
2022/01/17 02:29:37;;;;;;;0.10;0.10;;;6.50;99.90;;;;;;4985270;28;20656;-69
2022/01/17 02:32:04;;;;;;;0.10;0.10;;;6.40;99.90;;;;;;4972461;28;20639;-68
2022/01/17 02:34:31;;;;;;;0.10;0.10;;;6.40;99.90;;;;;;4970390;28;20688;-69
2022/01/17 02:36:58;;;;;;;0.10;0.10;;;6.40;99.90;;;;;;4968994;28;20671;-69
2022/01/17 02:39:26;;;;;;;0.00;0.00;;;6.30;99.90;;;;;;4970484;28;21214;-69
2022/01/17 02:41:53;;;;;;;0.10;0.10;;;6.30;99.90;;;;;;4972005;28;20661;-69
2022/01/17 02:44:20;;;;;;;0.10;0.10;;;6.30;99.90;;;;;;4973278;28;20651;-67
2022/01/17 02:46:47;;;;;;;0.10;0.10;;;6.30;99.90;;;;;;4970644;28;21202;-69
2022/01/17 02:49:14;;;;;;;0.10;0.10;;;6.30;99.90;;;;;;4973000;28;20635;-69
2022/01/17 02:51:43;;;;;;;0.10;0.10;;;6.30;99.90;;;;;;4970964;28;20631;-68
2022/01/17 02:54:11;;;;;;;0.10;0.10;;;6.30;99.90;;;;;;4968832;28;20970;-69
2022/01/17 02:56:39;;;;;;;0.10;0.10;;;6.30;99.90;;;;;;4968288;28;20648;-69
2022/01/17 02:59:07;;;;;;;0.10;0.10;;;6.30;99.90;;;;;;4974533;28;20620;-69
2022/01/17 03:01:34;;;;;;;0.07;0.07;;;6.30;99.90;;;;;;4970476;28;20659;-69
2022/01/17 03:04:01;;;;;;;0.00;0.00;;;6.30;99.90;;;;;;4971744;28;21108;-69
2022/01/17 03:06:29;;;;;;;0.10;0.10;;;6.30;99.90;;;;;;4986355;28;20625;-68
2022/01/17 03:08:56;;;;;;;0.10;0.10;;;6.30;99.90;;;;;;4967478;28;20637;-69
2022/01/17 03:11:26;;;;;;;0.10;0.10;;;6.30;99.90;;;;;;4969881;28;20684;-67
2022/01/17 03:13:55;;;;;;;0.00;0.00;;;6.30;99.90;;;;;;4987378;28;20670;-67
2022/01/17 03:16:29;;;;;;;0.10;0.10;;;6.30;99.90;;;;;;4971524;28;20657;-69
2022/01/17 03:18:56;;;;;;;0.10;0.10;;;6.30;99.90;;;;;;4975953;28;20627;-68
2022/01/17 03:21:27;;;;;;;0.10;0.10;;;6.30;99.90;;;;;;4971305;28;20684;-69
2022/01/17 03:23:54;;;;;;;0.10;0.10;;;6.20;99.90;;;;;;4967554;28;20657;-67
2022/01/17 03:26:21;;;;;;;0.10;0.10;;;6.30;99.90;;;;;;4968993;28;20617;-68
2022/01/17 03:28:49;;;;;;;0.10;0.10;;;6.30;99.90;;;;;;4969250;28;20637;-69
2022/01/17 03:31:17;;;;;;;0.10;0.10;;;6.30;99.90;;;;;;4971674;28;20718;-67
2022/01/17 03:33:44;;;;;;;0.10;0.10;;;6.20;99.90;;;;;;4969708;28;20640;-67
2022/01/17 03:36:11;;;;;;;0.10;0.10;;;6.20;99.90;;;;;;4972829;28;20615;-68
2022/01/17 03:38:38;;;;;;;0.10;0.10;;;6.20;99.90;;;;;;4973389;28;20628;-68
2022/01/17 03:41:07;;;;;;;0.10;0.10;;;6.20;99.90;;;;;;4972517;28;20695;-69
2022/01/17 03:43:34;;;;;;;0.10;0.10;;;6.20;99.90;;;;;;4968149;28;20656;-69
2022/01/17 03:46:01;;;;;;;0.10;0.10;;;6.20;99.90;;;;;;4971190;28;20616;-67
2022/01/17 03:48:34;;;;;;;0.10;0.10;;;6.20;99.90;;;;;;4971877;28;21077;-69
2022/01/17 03:51:02;;;;;;;0.10;0.10;;;6.10;99.90;;;;;;4985248;28;20668;-69
2022/01/17 03:53:29;;;;;;;0.10;0.10;;;6.20;99.90;;;;;;4969298;28;20656;-69
2022/01/17 03:55:57;;;;;;;0.10;0.10;;;6.10;99.90;;;;;;4969826;28;20629;-69
2022/01/17 03:58:26;;;;;;;0.10;0.10;;;6.10;99.90;;;;;;4972219;28;20675;-70
2022/01/17 04:00:55;;;;;;;0.10;0.10;;;6.10;99.90;;;;;;4969096;28;20629;-69
2022/01/17 04:03:22;;;;;;;0.10;0.10;;;6.10;99.90;;;;;;4971673;28;20743;-69
2022/01/17 04:05:52;;;;;;;0.10;0.10;;;6.10;99.90;;;;;;4972750;28;20978;-68
2022/01/17 04:08:19;;;;;;;0.10;0.10;;;6.10;99.90;;;;;;4976465;28;20613;-69
2022/01/17 04:10:46;;;;;;;0.10;0.10;;;6.10;99.90;;;;;;4972254;28;20648;-69
2022/01/17 04:13:13;;;;;;;0.10;0.10;;;6.10;99.90;;;;;;4976326;28;20631;-69
2022/01/17 04:15:40;;;;;;;0.10;0.10;;;6.10;99.90;;;;;;4975055;28;20623;-69
2022/01/17 04:18:10;;;;;;;0.10;0.10;;;6.10;99.90;;;;;;4977070;28;20684;-69
2022/01/17 04:20:38;;;;;;;0.10;0.10;;;6.00;99.90;;;;;;4974598;28;20612;-69
2022/01/17 04:23:08;;;;;;;0.10;0.10;;;6.10;99.90;;;;;;4975489;28;20640;-69
2022/01/17 04:25:37;;;;;;;0.10;0.10;;;6.10;99.90;;;;;;4974903;28;21040;-69
2022/01/17 04:28:06;;;;;;;0.10;0.10;;;6.10;99.90;;;;;;4972703;28;20620;-69
2022/01/17 04:30:35;;;;;;;0.10;0.10;;;6.10;99.90;;;;;;4974416;28;20628;-69
2022/01/17 04:33:02;;;;;;;0.10;0.10;;;6.10;99.90;;;;;;4975798;28;20621;-69
2022/01/17 04:35:30;;;;;;;0.10;0.10;;;6.10;99.90;;;;;;4975543;28;20661;-69
2022/01/17 04:38:00;;;;;;;0.10;0.10;;;6.10;99.90;;;;;;4977565;28;20667;-68
2022/01/17 04:40:35;;;;;;;0.10;0.10;;;6.10;99.90;;;;;;4990923;28;20621;-68
2022/01/17 04:43:04;;;;;;;0.10;0.10;;;6.10;99.90;;;;;;4977452;28;20615;-69
2022/01/17 04:45:31;;;;;;;0.10;0.10;;;6.10;99.90;;;;;;4979413;28;20709;-69
2022/01/17 04:47:58;;;;;;;0.10;0.10;;;6.10;99.90;;;;;;4973913;28;21268;-69
2022/01/17 04:50:27;;;;;;;0.10;0.10;;;6.10;99.90;;;;;;4976914;28;20708;-68
2022/01/17 04:53:04;;;;;;;0.10;0.10;;;6.10;99.90;;;;;;4976812;28;20637;-70
2022/01/17 04:55:33;;;;;;;0.10;0.10;;;6.10;99.90;;;;;;4978574;28;20627;-69
2022/01/17 04:58:00;;;;;;;0.10;0.10;;;6.10;99.90;;;;;;4982798;28;21021;-70
2022/01/17 05:00:28;;;;;;;0.10;0.10;;;6.10;99.90;;;;;;4975198;28;20632;-69
2022/01/17 05:02:56;;;;;;;0.10;0.10;;;6.10;99.90;;;;;;4977619;28;20647;-70
2022/01/17 05:05:23;;;;;;;0.10;0.10;;;6.10;99.90;;;;;;4976409;28;20609;-69
2022/01/17 05:07:50;;;;;;;0.10;0.10;;;6.10;99.90;;;;;;4989920;28;20625;-70
2022/01/17 05:10:21;;;;;;;0.10;0.10;;;6.00;99.90;;;;;;4975574;28;20728;-70
2022/01/17 05:12:50;;;;;;;0.10;0.10;;;6.00;99.90;;;;;;4974526;28;20621;-70
2022/01/17 05:15:32;;;;;;;0.10;0.10;;;6.00;99.90;;;;;;4973357;28;20651;-71
2022/01/17 05:18:11;;;;;;;0.10;0.10;;;6.00;99.90;;;;;;4974343;28;20671;-70
2022/01/17 05:20:39;;;;;;;0.10;0.10;;;6.00;99.90;;;;;;4975937;28;20649;-70
2022/01/17 05:23:06;;;;;;;0.10;0.10;;;6.00;99.90;;;;;;4972832;28;20648;-71
2022/01/17 05:25:33;;;;;;;0.00;0.00;;;6.00;99.90;;;;;;4972338;28;20675;-69
2022/01/17 05:28:01;;;;;;;0.10;0.10;;;6.00;99.90;;;;;;4978888;28;20632;-69
2022/01/17 05:30:28;;;;;;;0.10;0.10;;;6.00;99.90;;;;;;4978628;28;20651;-69
2022/01/17 05:32:58;;;;;;;0.03;0.03;;;6.00;99.90;;;;;;4975382;28;20711;-71
2022/01/17 05:35:26;;;;;;;0.10;0.10;;;5.90;99.90;;;;;;4975073;28;20627;-70
2022/01/17 05:37:53;;;;;;;0.07;0.07;;;6.00;99.90;;;;;;4980819;28;20659;-72
2022/01/17 05:40:20;;;;;;;0.10;0.10;;;5.90;99.90;;;;;;4981414;28;20635;-70
2022/01/17 05:42:48;;;;;;;0.10;0.10;;;6.00;99.90;;;;;;4969900;28;20624;-71
2022/01/17 05:45:17;;;;;;;0.00;0.00;;;6.00;99.90;;;;;;4969232;28;20655;-74
2022/01/17 05:47:44;;;;;;;0.10;0.10;;;5.90;99.90;;;;;;4978082;28;20637;-74
2022/01/17 05:50:12;;;;;;;0.10;0.10;;;5.90;99.90;;;;;;4980679;28;20666;-74
2022/01/17 05:52:40;;;;;;;0.10;0.10;;;5.90;99.90;;;;;;4978186;28;20625;-72
2022/01/17 05:55:09;;;;;;;0.10;0.10;;;5.90;99.90;;;;;;4979982;28;20707;-74
2022/01/17 05:57:36;;;;;;;0.10;0.10;;;5.90;99.90;;;;;;4979529;28;20663;-72
2022/01/17 06:00:05;;;;;;;0.10;0.10;;;5.90;99.90;;;;;;4980506;28;20633;-69
2022/01/17 06:02:33;;;;;;;0.10;0.10;;;5.80;99.90;;;;;;4978166;28;20604;-69
2022/01/17 06:05:00;;;;;;;0.10;0.10;;;5.80;99.90;;;;;;4984958;28;20737;-67
2022/01/17 06:07:27;;;;;;;0.00;0.00;;;5.80;99.90;;;;;;4977018;28;20637;-66
2022/01/17 06:09:54;;;;;;;0.10;0.10;;;5.80;99.90;;;;;;4977588;28;20716;-66
2022/01/17 06:12:21;;;;;;;0.00;0.00;;;5.70;99.90;;;;;;4974595;28;20608;-66
2022/01/17 06:14:48;;;;;;;0.10;0.10;;;5.70;99.90;;;;;;4972847;28;20652;-67
2022/01/17 06:17:15;;;;;;;0.10;0.10;;;5.70;99.90;;;;;;4974089;28;20682;-67
2022/01/17 06:19:43;;;;;;;0.10;0.10;;;5.70;99.90;;;;;;4968864;28;20617;-66
2022/01/17 06:22:12;;;;;;;0.10;0.10;;;5.70;99.90;;;;;;4971142;28;20617;-67
2022/01/17 06:24:39;;;;;;;0.10;0.10;;;5.80;99.90;;;;;;4971528;28;20707;-67
2022/01/17 06:27:06;;;;;;;0.10;0.10;;;5.80;99.90;;;;;;4975846;28;20639;-67
2022/01/17 06:29:34;;;;;;;0.10;0.10;;;5.70;99.90;;;;;;4973136;28;21270;-67
2022/01/17 06:32:01;;;;;;;0.10;0.10;;;5.80;99.90;;;;;;4977550;28;20660;-68
2022/01/17 06:34:28;;;;;;;0.10;0.10;;;5.80;99.90;;;;;;4970848;28;20649;-67
2022/01/17 06:36:56;;;;;;;0.10;0.10;;;5.80;99.90;;;;;;4970654;28;20728;-67
2022/01/17 06:39:23;;;;;;;0.10;0.10;;;5.80;99.90;;;;;;4963689;28;20665;-67
2022/01/17 06:41:50;;;;;;;0.10;0.10;;;5.80;99.90;;;;;;4972189;28;21008;-67
2022/01/17 06:44:17;;;;;;;0.10;0.10;;;5.80;99.90;;;;;;4982208;28;20770;-65
2022/01/17 06:46:44;;;;;;;0.10;0.10;;;5.90;99.90;;;;;;4979012;28;20652;-67
2022/01/17 06:49:12;;;;;;;0.10;0.10;;;5.90;99.90;;;;;;4971259;28;20708;-67
2022/01/17 06:51:40;;;;;;;0.10;0.10;;;5.80;99.90;;;;;;4972511;28;20723;-66
2022/01/17 06:54:08;;;;;;;0.10;0.10;;;5.80;99.90;;;;;;4979883;28;20741;-67
2022/01/17 06:56:35;;;;;;;0.10;0.10;;;5.90;99.90;;;;;;4970418;28;20727;-67
2022/01/17 06:59:02;;;;;;;0.10;0.10;;;5.90;99.90;;;;;;4969733;28;20657;-66
2022/01/17 07:01:30;;;;;;;0.10;0.10;;;5.90;99.90;;;;;;4975006;28;20755;-67
2022/01/17 07:03:56;;;;;;;0.10;0.10;;;5.90;99.90;;;;;;4974499;28;20647;-67
2022/01/17 07:06:24;;;;;;;0.10;0.10;;;5.90;99.90;;;;;;4973970;28;20612;-67
2022/01/17 07:08:51;;;;;;;0.10;0.10;;;6.00;99.90;;;;;;4970986;28;20629;-67
2022/01/17 07:11:19;;;;;;;0.00;0.00;;;6.00;99.90;;;;;;4972974;28;20727;-66
2022/01/17 07:13:47;;;;;;;0.10;0.10;;;6.00;99.90;;;;;;4973565;28;20636;-67
2022/01/17 07:16:14;;;;;;;0.10;0.10;;;6.00;99.90;;;;;;4971406;28;20671;-67
2022/01/17 07:18:41;;;;;;;0.10;0.10;;;6.00;99.90;;;;;;4969552;28;20708;-67
2022/01/17 07:21:08;;;;;;;0.10;0.10;;;6.00;99.90;;;;;;4980132;28;21122;-67
2022/01/17 07:23:37;;;;;;;0.10;0.10;;;6.10;99.90;;;;;;4970347;28;20767;-67
2022/01/17 07:26:04;;;;;;;0.10;0.10;;;6.10;99.90;;;;;;4976907;28;20620;-66
2022/01/17 07:28:33;;;;;;;0.10;0.10;;;6.10;99.90;;;;;;4972715;28;20735;-67
2022/01/17 07:31:01;;;;;;;0.10;0.10;;;6.00;99.90;;;;;;4970606;28;20628;-67
2022/01/17 07:33:30;;;;;;;0.10;0.10;;;6.00;99.90;;;;;;4970300;28;20653;-66
2022/01/17 07:35:57;;;;;;;0.10;0.10;;;6.00;99.90;;;;;;4968769;28;20632;-66
2022/01/17 07:38:24;;;;;;;0.10;0.10;;;6.00;99.90;;;;;;4977466;28;20676;-66
2022/01/17 07:40:51;;;;;;;0.10;0.10;;;6.10;99.90;;;;;;4972174;28;20628;-67
2022/01/17 07:43:18;;;;;;;0.10;0.10;;;6.10;99.90;;;;;;4972292;28;20666;-65
2022/01/17 07:46:02;;;;;;;0.10;0.10;;;6.10;99.90;;;;;;4972002;28;20649;-66
2022/01/17 07:51:26;;;;;;;0.10;0.10;;;6.10;99.90;;;;;;4942306;28;20633;-66
2022/01/17 07:53:54;;;;;;;0.10;0.10;;;6.10;99.90;;;;;;4965014;28;20730;-65
2022/01/17 07:56:22;;;;;;;0.10;0.10;;;6.10;99.90;;;;;;4972840;28;20688;-66
2022/01/17 07:58:49;;;;;;;0.10;0.10;;;6.00;99.90;;;;;;4972482;28;20668;-66
2022/01/17 08:01:17;;;;;;;0.10;0.10;;;6.10;99.90;;;;;;4972701;28;20662;-66
2022/01/17 08:03:44;;;;;;;0.10;0.10;;;6.10;99.90;;;;;;4971228;28;20665;-69
2022/01/17 08:06:11;;;;;;;0.10;0.10;;;6.10;99.90;;;;;;4988241;28;20632;-66
2022/01/17 08:08:38;;;;;;;0.10;0.10;;;6.10;99.90;;;;;;4973703;28;20612;-67
2022/01/17 08:11:05;;;;;;;0.10;0.10;;;6.10;99.90;;;;;;4972418;28;20664;-66
2022/01/17 08:13:32;;;;;;;0.10;0.10;;;6.10;99.90;;;;;;4970366;28;20657;-67
2022/01/17 08:16:02;;;;;;;0.10;0.10;;;6.10;99.90;;;;;;4972014;28;20704;-66
2022/01/17 08:18:36;;;;;;;0.10;0.10;;;6.10;99.90;;;;;;4973005;28;20648;-67
2022/01/17 08:21:04;;;;;;;0.10;0.10;;;6.10;99.90;;;;;;4972760;28;20632;-66
2022/01/17 08:23:31;;;;;;;0.10;0.10;;;6.10;99.90;;;;;;4968906;28;20741;-68
2022/01/17 08:25:58;;;;;;;0.10;0.10;;;6.10;99.90;;;;;;4977752;28;20691;-67
2022/01/17 08:28:25;;;;;;;0.10;0.10;;;6.10;99.90;;;;;;4969095;28;20675;-66
2022/01/17 08:30:52;;;;;;;0.00;0.00;;;6.10;99.90;;;;;;4972228;28;20628;-66
2022/01/17 08:33:18;;;;;;;0.10;0.10;;;6.10;99.90;;;;;;4970811;28;20715;-65
2022/01/17 08:35:47;;;;;;;0.10;0.10;;;6.20;99.90;;;;;;4986921;28;20617;-65
2022/01/17 08:38:14;;;;;;;0.10;0.10;;;6.20;99.90;;;;;;4972352;28;20669;-66
2022/01/17 08:40:40;;;;;;;0.10;0.10;;;6.20;99.90;;;;;;4974277;28;21208;-66
2022/01/17 08:43:07;;;;;;;0.10;0.10;;;6.20;99.90;;;;;;4970858;28;20712;-67
2022/01/17 08:45:35;;;;;;;0.10;0.10;;;6.30;99.90;;;;;;4971196;28;21221;-66
2022/01/17 08:48:02;;;;;;;0.10;0.10;;;6.30;99.90;;;;;;4970133;28;20704;-67
2022/01/17 08:50:29;;;;;;;0.10;0.10;;;6.30;99.90;;;;;;4972006;28;20692;-66
2022/01/17 08:52:58;;;;;;;0.10;0.10;;;6.30;99.90;;;;;;4970359;28;20619;-66
2022/01/17 08:55:25;;;;;;;0.10;0.10;;;6.30;99.90;;;;;;4972486;28;20663;-66
2022/01/17 08:57:52;;;;;;;0.10;0.10;;;6.30;99.90;;;;;;4971221;28;20631;-66
2022/01/17 09:00:20;;;;;;;0.10;0.10;;;6.30;99.90;;;;;;4970543;28;20633;-66
2022/01/17 09:02:47;;;;;;;0.10;0.10;;;6.40;99.90;;;;;;4978086;28;20688;-67
2022/01/17 09:05:14;;;;;;;0.10;0.10;;;;;;;;;;4973521;28;20692;-67
2022/01/17 09:07:42;;;;;;;0.10;0.10;;;;;;;;;;4968363;28;20729;-67
2022/01/17 09:10:11;;;;;;;0.10;0.10;;;;;;;;;;4971885;28;20728;-67
2022/01/17 09:12:38;;;;;;;0.10;0.10;;;;;;;;;;4978889;28;20616;-67
2022/01/17 09:15:05;;;;;;;0.10;0.10;;;;;;;;;;4978894;28;20664;-67
2022/01/17 09:17:33;;;;;;;0.10;0.10;;;;;;;;;;4968665;28;20632;-67
2022/01/17 09:20:00;;;;;;;0.10;0.10;;;;;;;;;;4970850;28;20661;-67
2022/01/17 09:22:29;;;;;;;0.10;0.10;;;;;;;;;;4974698;28;20620;-67
2022/01/17 09:24:57;;;;;;;0.10;0.10;;;;;;;;;;4973775;28;20649;-66
2022/01/17 09:27:26;;;;;;;0.10;0.10;;;;;;;;;;4969005;28;20614;-67
2022/01/17 09:29:53;;;;;;;0.10;0.10;;;;;;;;;;4988093;28;20697;-67
2022/01/17 09:32:20;;;;;;;0.10;0.10;;;;;;;;;;4975963;28;20628;-66
2022/01/17 09:34:48;;;;;;;0.10;0.10;;;;;;;;;;4974787;28;20743;-67
2022/01/17 09:37:15;;;;;;;0.10;0.10;;;;;;;;;;4974045;28;20626;-67
2022/01/17 09:39:42;;;;;;;0.10;0.10;;;;;;;;;;4969343;28;20665;-67
2022/01/17 09:42:11;;;;;;;0.10;0.10;;;;;;;;;;4974560;28;20627;-67
2022/01/17 09:44:40;;;;;;;0.10;0.10;;;;;;;;;;4970184;28;20664;-66
2022/01/17 09:47:08;;;;;;;0.10;0.10;;;;;;;;;;4977976;28;20627;-67
2022/01/17 09:49:41;;;;;;;0.10;0.10;;;;;;;;;;4970123;28;20601;-67
2022/01/17 09:52:34;;;;;;;0.10;0.10;;;;;;;;;;4973157;28;20652;-67
2022/01/17 09:55:04;;;;;;;0.10;0.10;;;;;;;;;;4971033;28;20651;-67
2022/01/17 09:57:32;;;;;;;0.10;0.10;;;;;;;;;;4988131;28;20625;-66
2022/01/17 10:00:01;;;;;;;0.00;0.00;;;;;;;;;;4971870;28;21001;-67
2022/01/17 10:02:28;;;;;;;0.10;0.10;;;;;;;;;;4970616;28;20621;-68
2022/01/17 10:04:55;;;;;;;0.10;0.10;;;;;;;;;;4967768;28;20660;-67
2022/01/17 10:07:25;;;;;;;0.10;0.10;;;;;;;;;;4973438;28;20674;-67
2022/01/17 10:09:58;;;;;;;0.10;0.10;;;;;;;;;;4977660;28;20625;-67
2022/01/17 10:12:26;;;;;;;0.10;0.10;;;;;;;;;;4985138;28;20633;-67
2022/01/17 10:14:59;;;;;;;0.10;0.10;;;;;;;;;;4969380;28;21279;-67
2022/01/17 10:17:44;;;;;;;0.10;0.10;;;6.50;99.90;;;;;;4975176;28;20750;-66
2022/01/17 10:20:14;;;;;;;0.10;0.10;;;7.20;99.90;;;;;;4974199;28;20673;-66
2022/01/17 10:22:50;;;;;;;0.10;0.10;;;7.20;99.90;;;;;;4973072;28;20628;-67
2022/01/17 10:25:27;;;;;;;0.10;0.10;;;7.30;99.90;;;;;;4974589;28;20643;-68
2022/01/17 10:28:34;;;;;;;0.10;0.10;;;7.30;99.90;;;;;;4992441;28;21229;-67
2022/01/17 10:31:23;;;;;;;0.10;0.10;;;7.30;99.90;;;;;;4970056;28;20651;-67
2022/01/17 10:37:29;;;;;;;0.10;0.10;;;;;;;;;;4974687;28;20663;-69
2022/01/17 10:39:58;;;;;;;0.10;0.10;;;;;;;;;;4971811;28;20657;-69
2022/01/17 10:42:26;;;;;;;0.10;0.10;;;;;;;;;;4975200;28;20615;-70
2022/01/17 10:44:54;;;;;;;0.10;0.10;;;;;;;;;;4975923;28;20731;-68
2022/01/17 10:47:23;;;;;;;0.00;0.00;;;;;;;;;;4975955;28;20740;-67
2022/01/17 10:49:52;;;;;;;0.10;0.10;;;;;;;;;;4970278;28;20621;-67
2022/01/17 10:52:33;;;;;;;0.10;0.10;;;;;;;;;;4969207;28;20658;-68
2022/01/17 10:55:02;;;;;;;0.00;0.00;;;;;;;;;;4986531;28;20700;-68
2022/01/17 10:57:34;;;;;;;0.10;0.10;;;;;;;;;;4971331;28;20689;-68
2022/01/17 11:00:01;;;;;;;0.10;0.10;;;;;;;;;;4975095;28;20655;-67
2022/01/17 11:02:29;;;;;;;0.10;0.10;;;;;;;;;;4972869;28;20652;-68
2022/01/17 11:04:57;;;;;;;0.10;0.10;;;;;;;;;;4989228;28;20697;-68
2022/01/17 11:07:24;;;;;;;0.10;0.10;;;;;;;;;;4988526;28;21097;-69
2022/01/17 11:09:54;;;;;;;0.10;0.10;;;;;;;;;;4973275;28;20644;-70
2022/01/17 11:12:21;;;;;;;0.10;0.10;;;;;;;;;;4969892;28;20648;-70
2022/01/17 11:14:49;;;;;;;0.03;0.03;;;;;;;;;;4970535;28;20640;-70
2022/01/17 11:17:23;;;;;;;0.10;0.10;;;;;;;;;;4976165;28;20604;-69
2022/01/17 11:20:04;;;;;;;0.10;0.10;;;;;;;;;;4970094;28;20657;-69
2022/01/17 11:22:33;;;;;;;0.10;0.10;;;;;;;;;;4971444;28;20696;-69
2022/01/17 11:25:01;;;;;;;0.00;0.00;;;;;;;;;;4975824;28;20714;-70
2022/01/17 11:27:28;;;;;;;0.10;0.10;;;;;;;;;;4969595;28;20637;-69
2022/01/17 11:29:57;;;;;;;0.00;0.00;;;;;;;;;;4966283;28;20716;-69
2022/01/17 11:32:24;;;;;;;0.10;0.10;;;;;;;;;;4969716;28;21206;-68
2022/01/17 11:34:52;;;;;;;0.00;0.00;;;;;;;;;;4971281;28;20667;-70
2022/01/17 11:37:20;;;;;;;0.10;0.10;;;;;;;;;;4970075;28;20625;-69
2022/01/17 11:39:50;;;;;;;0.03;0.03;;;;;;;;;;4970348;28;20740;-70
2022/01/17 11:42:34;;;;;;;0.10;0.10;;;;;;;;;;4971677;28;20730;-69
2022/01/17 11:45:02;;;;;;;0.07;0.07;;;;;;;;;;4972287;28;20656;-69
2022/01/17 11:47:48;;;;;;;0.00;0.00;;;;;;;;;;4971748;28;20683;-69
2022/01/17 11:50:37;;;;;;;0.10;0.10;;;;;;;;;;4971579;28;20629;-70
2022/01/17 11:53:19;;;;;;;0.10;0.10;;;;;;;;;;4965072;28;20624;-68
2022/01/17 11:55:48;;;;;;;0.10;0.10;;;;;;;;;;4967131;28;20752;-69
2022/01/17 11:58:19;;;;;;;0.10;0.10;;;;;;;;;;4966527;28;20633;-69
2022/01/17 12:00:46;;;;;;;0.10;0.10;;;;;;;;;;4985415;28;21027;-69
2022/01/17 12:03:18;;;;;;;0.10;0.10;;;;;;;;;;4971301;28;20628;-70
2022/01/17 12:05:45;;;;;;;0.10;0.10;;;;;;;;;;4969657;28;20629;-69
2022/01/17 12:08:17;;;;;;;0.10;0.10;;;;;;;;;;4987898;28;20646;-70
2022/01/17 12:10:46;;;;;;;0.10;0.10;;;;;;;;;;4970230;28;21194;-69
2022/01/17 12:13:42;;;;;;;0.10;0.10;;;;;;;;;;4975279;28;20699;-68
2022/01/17 12:16:14;;;;;;;0.10;0.10;;;;;;;;;;4967630;28;20628;-69
2022/01/17 12:18:43;;;;;;;0.10;0.10;;;;;;;;;;4971176;28;20694;-68
2022/01/17 12:21:24;;;;;;;0.10;0.10;;;;;;;;;;4973175;28;20756;-67
2022/01/17 12:23:52;;;;;;;0.10;0.10;;;;;;;;;;4971437;28;20660;-65
2022/01/17 12:26:30;;;;;;;0.10;0.10;;;;;;;;;;4970198;28;20612;-68
2022/01/17 12:28:58;;;;;;;0.10;0.10;;;;;;;;;;4972137;28;20633;-68
2022/01/17 12:31:39;;;;;;;0.10;0.10;;;;;;;;;;4970869;28;20631;-68
2022/01/17 12:34:18;;;;;;;0.10;0.10;;;;;;;;;;4969944;28;20676;-68
2022/01/17 12:36:47;;;;;;;0.10;0.10;;;;;;;;;;4971291;28;20711;-68
2022/01/17 12:39:15;;;;;;;0.00;0.00;;;;;;;;;;4968873;28;20659;-68
2022/01/17 12:41:44;;;;;;;0.10;0.10;;;;;;;;;;4967717;28;20640;-68
2022/01/17 12:44:16;;;;;;;0.10;0.10;;;;;;;;;;4969570;28;20722;-68
2022/01/17 12:46:45;;;;;;;0.10;0.10;;;;;;;;;;4971211;28;20605;-68
2022/01/17 12:49:13;;;;;;;0.10;0.10;;;;;;;;;;4973950;28;20643;-68
2022/01/17 12:51:44;;;;;;;0.10;0.10;;;;;;;;;;4970856;28;20691;-68
2022/01/17 12:54:12;;;;;;;0.20;0.10;;;;;;;;;;4966654;28;20675;-68
2022/01/17 12:56:43;;;;;;;0.10;0.10;;;;;;;;;;4968588;28;20629;-68
2022/01/17 12:59:11;;;;;;;0.10;0.10;;;;;;;;;;4968869;28;20629;-68
2022/01/17 13:01:42;;;;;;;0.10;0.10;;;;;;;;;;4968994;28;20645;-68
2022/01/17 13:04:12;;;;;;;0.10;0.10;;;;;;;;;;4970143;28;20663;-68
2022/01/17 13:06:40;;;;;;;0.10;0.10;;;;;;;;;;4976381;28;20629;-66
2022/01/17 13:09:11;;;;;;;0.10;0.10;;;;;;;;;;4971353;28;20625;-66
2022/01/17 13:11:40;;;;;;;0.10;0.10;;;;;;;;;;4976345;28;20660;-66
2022/01/17 13:14:07;;;;;;;0.10;0.10;;;;;;;;;;4965408;28;20657;-67
2022/01/17 13:16:35;;;;;;;0.10;0.10;;;;;;;;;;4968392;28;20633;-66
2022/01/17 13:19:03;;;;;;;0.10;0.10;;;;;;;;;;4968111;28;20683;-67
2022/01/17 13:21:32;;;;;;;0.10;0.10;;;;;;;;;;4967111;28;20664;-67
2022/01/17 13:24:12;;;;;;;0.10;0.10;;;;;;;;;;4971138;28;20739;-68
2022/01/17 13:26:40;;;;;;;0.10;0.10;;;;;;;;;;4972022;28;20604;-67
2022/01/17 13:29:09;;;;;;;0.10;0.10;;;;;;;;;;4968903;28;20640;-67
2022/01/17 13:31:36;;;;;;;0.10;0.10;;;;;;;;;;4959589;28;20680;-68
2022/01/17 13:34:11;;;;;;;0.10;0.10;;;;;;;;;;4968489;28;20645;-68
2022/01/17 13:36:40;;;;;;;0.10;0.10;;;;;;;;;;4963239;28;20624;-70
2022/01/17 13:39:09;;;;;;;0.10;0.10;;;;;;;;;;4966247;28;20644;-68
2022/01/17 13:41:37;;;;;;;0.10;0.10;;;;;;;;;;4963207;28;20661;-67
2022/01/17 13:44:04;;;;;;;0.10;0.10;;;;;;;;;;4969917;28;20664;-66
2022/01/17 13:46:32;;;;;;;0.10;0.10;;;;;;;;;;4968946;28;20624;-67
2022/01/17 13:48:59;;;;;;;0.10;0.10;;;;;;;;;;4969584;28;20700;-67
2022/01/17 13:51:27;;;;;;;0.00;0.00;;;;;;;;;;4969407;28;20633;-67
2022/01/17 13:53:57;;;;;;;0.10;0.10;;;;;;;;;;4974580;28;20663;-68